Terminal Aerodrome Forecast
Issued by NWS Paducah, KY

Home | Current Version | Previous Version | Text Only | Print | Product List | Glossary On
Versions: 1 2 3 4 5 6 7 8 9 10 11 12
000
FTUS43 KPAH 121120
TAFPAH
TAF
KPAH 121120Z 1212/1312 33014G23KT P6SM OVC035
     FM121500 34015G23KT P6SM SCT060
     FM122000 31012KT P6SM FEW250
     FM122300 30006KT P6SM FEW250
     FM130600 24004KT P6SM FEW250=

USA.gov is the U.S. government's official web portal to all federal, state and local government web resources and services.